createdAt,value
2022-12-03T00:00:46.111Z,-8.05
2022-12-03T00:03:13.186Z,-8.05
2022-12-03T00:05:48.348Z,-8.15
2022-12-03T00:08:16.016Z,-8.09
2022-12-03T00:10:43.099Z,-8.08
2022-12-03T00:13:10.116Z,-8.10
2022-12-03T00:15:37.122Z,-8.08
2022-12-03T00:18:04.212Z,-8.10
2022-12-03T00:20:31.159Z,-8.08
2022-12-03T00:22:58.106Z,-7.99
2022-12-03T00:25:25.029Z,-7.97
2022-12-03T00:27:51.905Z,-8.03
2022-12-03T00:30:19.036Z,-8.06
2022-12-03T00:32:45.946Z,-8.11
2022-12-03T00:35:13.028Z,-8.20
2022-12-03T00:37:39.996Z,-8.31
2022-12-03T00:40:07.552Z,-8.62
2022-12-03T00:42:34.478Z,-8.49
2022-12-03T00:45:01.439Z,-8.54
2022-12-03T00:47:30.366Z,-8.43
2022-12-03T00:49:57.463Z,-8.55
2022-12-03T00:52:24.417Z,-8.42
2022-12-03T00:54:51.716Z,-8.32
2022-12-03T00:57:19.031Z,-8.40
2022-12-03T00:59:46.046Z,-8.38
2022-12-03T01:02:13.131Z,-8.49
2022-12-03T01:04:40.177Z,-8.34
2022-12-03T01:07:07.159Z,-8.56
2022-12-03T01:09:34.163Z,-8.61
2022-12-03T01:12:01.185Z,-8.65
2022-12-03T01:14:28.101Z,-8.68
2022-12-03T01:16:55.078Z,-8.57
2022-12-03T01:19:21.983Z,-8.52
2022-12-03T01:21:50.566Z,-8.71
2022-12-03T01:24:18.796Z,-8.50
2022-12-03T01:26:45.686Z,-8.52
2022-12-03T01:29:13.075Z,-8.49
2022-12-03T01:31:58.810Z,-8.52
2022-12-03T01:34:25.843Z,-8.63
2022-12-03T01:36:52.902Z,-8.58
2022-12-03T01:39:20.239Z,-8.51
2022-12-03T01:41:49.339Z,-8.56
2022-12-03T01:44:21.194Z,-8.56
2022-12-03T01:46:51.010Z,-8.55
2022-12-03T01:49:21.862Z,-8.58
2022-12-03T01:51:51.327Z,-8.80
2022-12-03T01:54:31.136Z,-8.78
2022-12-03T01:56:58.628Z,-8.87
2022-12-03T01:59:34.479Z,-8.81
2022-12-03T02:02:33.839Z,-8.66
2022-12-03T02:05:03.769Z,-8.71
2022-12-03T02:07:33.913Z,-8.78
2022-12-03T02:10:04.479Z,-8.69
2022-12-03T02:12:38.780Z,-8.86
2022-12-03T02:15:07.874Z,-8.82
2022-12-03T02:17:35.027Z,-9.00
2022-12-03T02:20:04.638Z,-8.85
2022-12-03T02:22:47.031Z,-8.96
2022-12-03T02:25:21.501Z,-8.83
2022-12-03T02:27:49.409Z,-8.93
2022-12-03T02:30:22.178Z,-9.22
2022-12-03T02:32:49.982Z,-9.30
2022-12-03T02:35:22.921Z,-9.21
2022-12-03T02:37:53.250Z,-9.32
2022-12-03T02:40:22.853Z,-9.48
2022-12-03T02:42:53.584Z,-9.28
2022-12-03T02:45:33.840Z,-9.17
2022-12-03T02:48:00.715Z,-9.36
2022-12-03T02:50:33.278Z,-9.43
2022-12-03T02:53:03.253Z,-9.31
2022-12-03T02:55:36.590Z,-9.53
2022-12-03T02:58:05.340Z,-9.29
2022-12-03T03:00:33.385Z,-9.36
2022-12-03T03:03:02.694Z,-9.23
2022-12-03T03:05:30.236Z,-9.30
2022-12-03T03:07:59.377Z,-9.40
2022-12-03T03:10:27.000Z,-9.31
2022-12-03T03:12:55.624Z,-9.30
2022-12-03T03:15:23.671Z,-9.53
2022-12-03T03:17:51.227Z,-9.44
2022-12-03T03:20:19.402Z,-9.47
2022-12-03T03:22:46.422Z,-9.64
2022-12-03T03:25:18.765Z,-9.57
2022-12-03T03:27:46.031Z,-9.60
2022-12-03T03:30:14.330Z,-9.53
2022-12-03T03:32:42.796Z,-9.40
2022-12-03T03:35:11.870Z,-9.37
2022-12-03T03:37:39.357Z,-9.29
2022-12-03T03:40:07.361Z,-9.38
2022-12-03T03:42:35.066Z,-9.61
2022-12-03T03:45:02.253Z,-9.68
2022-12-03T03:47:30.087Z,-9.67
2022-12-03T03:49:56.995Z,-9.74
2022-12-03T03:52:24.324Z,-9.47
2022-12-03T03:54:51.462Z,-9.39
2022-12-03T03:57:18.624Z,-9.44
2022-12-03T03:59:45.558Z,-9.54
2022-12-03T04:02:24.865Z,-9.44
2022-12-03T04:04:52.094Z,-9.58
2022-12-03T04:07:19.207Z,-9.57
2022-12-03T04:09:46.271Z,-9.84
2022-12-03T04:12:31.963Z,-9.61
2022-12-03T04:14:59.280Z,-9.56
2022-12-03T04:17:26.174Z,-9.60
2022-12-03T04:19:53.109Z,-9.88
2022-12-03T04:22:41.145Z,-9.78
2022-12-03T04:25:28.988Z,-9.83
2022-12-03T04:28:14.655Z,-9.90
2022-12-03T04:30:41.581Z,-9.90
2022-12-03T04:33:27.422Z,-9.92
2022-12-03T04:35:54.392Z,-9.95
2022-12-03T04:38:21.360Z,-9.85
2022-12-03T04:41:06.475Z,-9.90
2022-12-03T04:43:34.910Z,-9.93
2022-12-03T04:46:02.513Z,-10.34
2022-12-03T04:48:30.015Z,-10.14
2022-12-03T04:50:56.985Z,-10.29
2022-12-03T04:53:23.873Z,-10.25
2022-12-03T04:55:50.890Z,-10.23
2022-12-03T04:58:17.757Z,-10.28
2022-12-03T05:00:44.699Z,-10.38
2022-12-03T05:03:11.643Z,-10.28
2022-12-03T05:05:38.611Z,-10.12
2022-12-03T05:08:05.848Z,-10.19
2022-12-03T05:10:32.811Z,-10.12
2022-12-03T05:12:59.716Z,-10.06
2022-12-03T05:15:26.610Z,-10.14
2022-12-03T05:17:53.466Z,-10.53
2022-12-03T05:20:39.182Z,-10.49
2022-12-03T05:23:06.136Z,-10.23
2022-12-03T05:25:33.038Z,-10.28
2022-12-03T05:27:59.941Z,-10.29
2022-12-03T05:30:26.917Z,-10.31
2022-12-03T05:32:54.043Z,-10.74
2022-12-03T05:35:20.971Z,-10.40
2022-12-03T05:37:47.861Z,-10.59
2022-12-03T05:40:15.252Z,-10.37
2022-12-03T05:42:53.995Z,-10.39
2022-12-03T05:45:22.219Z,-10.68
2022-12-03T05:47:49.510Z,-10.83
2022-12-03T05:50:16.739Z,-10.60
2022-12-03T05:52:43.936Z,-10.85
2022-12-03T05:55:11.956Z,-10.64
2022-12-03T05:57:39.592Z,-10.81
2022-12-03T06:00:18.351Z,-11.10
2022-12-03T06:02:45.539Z,-10.71
2022-12-03T06:05:14.653Z,-10.64
2022-12-03T06:07:42.253Z,-10.51
2022-12-03T06:10:11.808Z,-10.29
2022-12-03T06:12:39.443Z,-10.30
2022-12-03T06:15:07.090Z,-10.30
2022-12-03T06:17:33.954Z,-10.17
2022-12-03T06:20:00.970Z,-10.05
2022-12-03T06:22:27.951Z,-10.06
2022-12-03T06:24:54.993Z,-10.09
2022-12-03T06:27:22.208Z,-9.86
2022-12-03T06:29:49.220Z,-9.67
2022-12-03T06:32:16.227Z,-9.37
2022-12-03T06:34:43.095Z,-9.65
2022-12-03T06:37:10.017Z,-9.60
2022-12-03T06:39:36.924Z,-9.43
2022-12-03T06:42:03.931Z,-9.75
2022-12-03T06:44:30.946Z,-9.58
2022-12-03T06:46:57.944Z,-9.37
2022-12-03T06:49:24.871Z,-9.56
2022-12-03T06:51:51.774Z,-9.27
2022-12-03T06:54:18.811Z,-9.22
2022-12-03T06:56:46.280Z,-9.06
2022-12-03T06:59:14.493Z,-8.82
2022-12-03T07:01:41.536Z,-8.66
2022-12-03T07:04:08.622Z,-8.86
2022-12-03T07:06:35.524Z,-8.61
2022-12-03T07:09:02.439Z,-8.81
2022-12-03T07:11:32.247Z,-8.81
2022-12-03T07:14:05.075Z,-9.02
2022-12-03T07:16:32.376Z,-8.55
2022-12-03T07:18:59.328Z,-8.40
2022-12-03T07:21:26.266Z,-8.22
2022-12-03T07:23:53.222Z,-8.23
2022-12-03T07:26:20.179Z,-8.27
2022-12-03T07:28:48.374Z,-8.31
2022-12-03T07:31:15.733Z,-8.27
2022-12-03T07:33:42.939Z,-8.20
2022-12-03T07:36:10.241Z,-7.95
2022-12-03T07:38:37.403Z,-7.97
2022-12-03T07:41:04.292Z,-8.00
2022-12-03T07:43:31.386Z,-7.80
2022-12-03T07:45:58.247Z,-7.55
2022-12-03T07:48:25.150Z,-7.33
2022-12-03T07:50:52.070Z,-7.13
2022-12-03T07:53:19.051Z,-7.18
2022-12-03T07:55:46.006Z,-7.32
2022-12-03T07:58:12.908Z,-7.16
2022-12-03T08:00:39.918Z,-6.87
2022-12-03T08:03:06.855Z,-6.88
2022-12-03T08:05:33.919Z,-6.88
2022-12-03T08:08:01.466Z,-6.56
2022-12-03T08:10:28.583Z,-6.68
2022-12-03T08:12:59.002Z,-6.91
2022-12-03T08:15:32.241Z,-6.84
2022-12-03T08:18:11.833Z,-6.74
2022-12-03T08:20:40.967Z,-6.85
2022-12-03T08:23:13.921Z,-6.85
2022-12-03T08:25:41.214Z,-7.04
2022-12-03T08:28:14.063Z,-6.79
2022-12-03T08:30:43.362Z,-6.69
2022-12-03T08:33:26.013Z,-6.80
2022-12-03T08:35:53.128Z,-6.65
2022-12-03T08:38:22.986Z,-6.63
2022-12-03T08:40:52.701Z,-6.96
2022-12-03T08:43:27.663Z,-6.81
2022-12-03T08:45:56.871Z,-6.72
2022-12-03T08:48:30.049Z,-6.62
2022-12-03T08:51:20.397Z,-6.37
2022-12-03T08:53:50.490Z,-6.25
2022-12-03T08:56:25.759Z,-6.22
2022-12-03T08:59:18.650Z,-5.98
2022-12-03T09:01:47.411Z,-6.14
2022-12-03T09:04:31.519Z,-6.37
2022-12-03T09:06:58.749Z,-6.23
2022-12-03T09:09:26.451Z,-6.12
2022-12-03T09:11:54.062Z,-6.09
2022-12-03T09:14:22.870Z,-6.35
2022-12-03T09:16:52.125Z,-6.11
2022-12-03T09:19:19.217Z,-6.13
2022-12-03T09:21:46.394Z,-6.24
2022-12-03T09:24:13.401Z,-6.22
2022-12-03T09:26:40.408Z,-6.01
2022-12-03T09:29:11.932Z,-5.93
2022-12-03T09:31:40.088Z,-5.77
2022-12-03T09:34:07.861Z,-5.96
2022-12-03T09:36:36.929Z,-6.08
2022-12-03T09:39:04.422Z,-6.14
2022-12-03T09:41:31.566Z,-5.64
2022-12-03T09:44:06.192Z,-5.89
2022-12-03T09:46:37.473Z,-5.84
2022-12-03T09:49:10.806Z,-5.76
2022-12-03T09:51:41.005Z,-5.59
2022-12-03T09:54:08.347Z,-5.76
2022-12-03T09:56:38.079Z,-5.87
2022-12-03T09:59:15.168Z,-5.81
2022-12-03T10:01:42.670Z,-5.59
2022-12-03T10:04:10.104Z,-5.54
2022-12-03T10:06:41.062Z,-5.58
2022-12-03T10:09:17.498Z,-5.74
2022-12-03T10:11:44.759Z,-5.47
2022-12-03T10:14:14.327Z,-5.69
2022-12-03T10:16:41.689Z,-5.45
2022-12-03T10:19:22.316Z,-5.43
2022-12-03T10:21:49.347Z,-5.46
2022-12-03T10:24:31.725Z,-5.27
2022-12-03T10:27:01.448Z,-5.38
2022-12-03T10:29:34.946Z,-5.32
2022-12-03T10:32:07.960Z,-5.22
2022-12-03T10:34:37.664Z,-5.14
2022-12-03T10:37:34.087Z,-4.93
2022-12-03T10:40:09.776Z,-5.16
2022-12-03T10:42:41.341Z,-5.34
2022-12-03T10:45:22.871Z,-5.25
2022-12-03T10:48:27.574Z,-5.48
2022-12-03T10:51:02.509Z,-5.43
2022-12-03T10:53:35.729Z,-5.37
2022-12-03T10:56:05.936Z,-5.24
2022-12-03T10:58:38.067Z,-5.53
2022-12-03T11:01:25.881Z,-5.65
2022-12-03T11:03:55.939Z,-5.57
2022-12-03T11:06:23.541Z,-5.78
2022-12-03T11:08:58.383Z,-5.63
2022-12-03T11:11:27.910Z,-5.48
2022-12-03T11:13:57.100Z,-5.46
2022-12-03T11:16:39.269Z,-5.23
2022-12-03T11:19:45.866Z,-5.34
2022-12-03T11:22:17.566Z,-5.73
2022-12-03T11:24:44.444Z,-5.79
2022-12-03T11:27:19.140Z,-5.68
2022-12-03T11:29:58.710Z,-5.43
2022-12-03T11:32:43.925Z,-5.39
2022-12-03T11:35:37.821Z,-5.44
2022-12-03T11:38:46.189Z,-5.72
2022-12-03T11:41:36.096Z,-5.62
2022-12-03T11:44:32.776Z,-5.56
2022-12-03T11:47:00.687Z,-5.70
2022-12-03T11:49:36.098Z,-5.67
2022-12-03T11:52:19.313Z,-5.54
2022-12-03T11:54:50.832Z,-5.43
2022-12-03T11:57:30.687Z,-5.54
2022-12-03T12:00:10.448Z,-5.49
2022-12-03T12:02:42.201Z,-5.70
2022-12-03T12:05:21.145Z,-5.83
2022-12-03T12:07:49.087Z,-5.46
2022-12-03T12:10:38.555Z,-5.52
2022-12-03T12:13:05.840Z,-5.25
2022-12-03T12:15:41.773Z,-5.38
2022-12-03T12:18:36.803Z,-5.37
2022-12-03T12:21:38.624Z,-5.83
2022-12-03T12:24:51.549Z,-5.52
2022-12-03T12:27:21.891Z,-5.35
2022-12-03T12:29:55.160Z,-5.40
2022-12-03T12:32:30.667Z,-5.26
2022-12-03T12:35:13.756Z,-5.34
2022-12-03T12:38:06.991Z,-5.38
2022-12-03T12:40:36.567Z,-5.43
2022-12-03T12:43:25.184Z,-5.55
2022-12-03T12:46:13.508Z,-5.43
2022-12-03T12:48:46.124Z,-5.41
2022-12-03T12:51:17.015Z,-5.55
2022-12-03T12:53:44.036Z,-5.39
2022-12-03T12:56:26.875Z,-5.47
2022-12-03T12:58:56.832Z,-5.39
2022-12-03T13:01:29.966Z,-5.18
2022-12-03T13:03:57.593Z,-5.36
2022-12-03T13:06:30.311Z,-5.28
2022-12-03T13:09:01.303Z,-5.10
2022-12-03T13:11:42.370Z,-5.43
2022-12-03T13:14:22.821Z,-5.29
2022-12-03T13:16:52.188Z,-5.28
2022-12-03T13:19:23.840Z,-5.38
2022-12-03T13:21:53.659Z,-5.61
2022-12-03T13:24:39.671Z,-5.63
2022-12-03T13:27:19.677Z,-5.39
2022-12-03T13:29:51.147Z,-5.35
2022-12-03T13:32:23.450Z,-5.37
2022-12-03T13:34:55.430Z,-5.19
2022-12-03T13:37:25.307Z,-5.05
2022-12-03T13:39:55.237Z,-5.06
2022-12-03T13:42:43.323Z,-5.04
2022-12-03T13:45:19.299Z,-5.14
2022-12-03T13:47:48.022Z,-5.10
2022-12-03T13:50:41.453Z,-5.02
2022-12-03T13:53:11.415Z,-4.99
2022-12-03T13:55:50.276Z,-5.04
2022-12-03T13:58:17.521Z,-5.05
2022-12-03T14:00:44.702Z,-5.11
2022-12-03T14:03:11.871Z,-5.07
2022-12-03T14:05:38.989Z,-5.17
2022-12-03T14:08:06.332Z,-5.47
2022-12-03T14:10:33.445Z,-5.33
2022-12-03T14:13:00.602Z,-5.66
2022-12-03T14:15:27.576Z,-5.45
2022-12-03T14:17:54.573Z,-5.41
2022-12-03T14:20:22.409Z,-5.36
2022-12-03T14:23:04.508Z,-5.40
2022-12-03T14:25:31.627Z,-5.18
2022-12-03T14:27:58.555Z,-5.22
2022-12-03T14:30:25.454Z,-5.26
2022-12-03T14:32:52.546Z,-5.07
2022-12-03T14:35:19.444Z,-5.04
2022-12-03T14:37:46.496Z,-5.01
2022-12-03T14:40:19.642Z,-5.15
2022-12-03T14:42:48.477Z,-4.98
2022-12-03T14:45:15.392Z,-4.86
2022-12-03T14:47:42.600Z,-4.96
2022-12-03T14:50:14.403Z,-4.76
2022-12-03T14:52:41.696Z,-5.03
2022-12-03T14:55:08.915Z,-5.10
2022-12-03T14:57:37.510Z,-5.18
2022-12-03T15:00:07.238Z,-5.26
2022-12-03T15:02:34.327Z,-5.00
2022-12-03T15:05:01.446Z,-5.16
2022-12-03T15:07:32.134Z,-5.37
2022-12-03T15:09:59.184Z,-5.44
2022-12-03T15:12:26.355Z,-5.42
2022-12-03T15:14:53.334Z,-5.43
2022-12-03T15:17:29.470Z,-5.14
2022-12-03T15:19:58.399Z,-5.15
2022-12-03T15:22:25.344Z,-5.14
2022-12-03T15:24:52.311Z,-5.12
2022-12-03T15:27:19.233Z,-5.16
2022-12-03T15:29:46.300Z,-5.07
2022-12-03T15:32:13.598Z,-4.97
2022-12-03T15:34:40.508Z,-4.96
2022-12-03T15:37:09.418Z,-5.05
2022-12-03T15:39:37.708Z,-4.86
2022-12-03T15:42:04.624Z,-4.74
2022-12-03T15:44:31.595Z,-4.73
2022-12-03T15:46:58.570Z,-4.78
2022-12-03T15:49:25.551Z,-4.67
2022-12-03T15:51:52.476Z,-4.84
2022-12-03T15:54:19.870Z,-5.00
2022-12-03T15:56:47.310Z,-5.09
2022-12-03T15:59:14.423Z,-5.14
2022-12-03T16:01:41.568Z,-5.04
2022-12-03T16:04:08.810Z,-4.91
2022-12-03T16:06:36.095Z,-4.90
2022-12-03T16:09:03.125Z,-5.09
2022-12-03T16:11:30.219Z,-5.02
2022-12-03T16:13:57.328Z,-5.14
2022-12-03T16:16:24.352Z,-4.89
2022-12-03T16:18:51.471Z,-4.82
2022-12-03T16:21:23.369Z,-4.89
2022-12-03T16:23:53.596Z,-4.92
2022-12-03T16:26:20.462Z,-4.64
2022-12-03T16:28:48.556Z,-4.62
2022-12-03T16:31:15.476Z,-4.80
2022-12-03T16:33:42.656Z,-4.88
2022-12-03T16:36:09.879Z,-5.06
2022-12-03T16:38:36.927Z,-5.11
2022-12-03T16:41:03.887Z,-5.06
2022-12-03T16:43:34.047Z,-4.82
2022-12-03T16:46:20.872Z,-5.15
2022-12-03T16:48:48.494Z,-5.29
2022-12-03T16:51:16.202Z,-4.99
2022-12-03T16:53:43.311Z,-4.90
2022-12-03T16:56:10.347Z,-5.16
2022-12-03T16:58:37.276Z,-4.98
2022-12-03T17:01:04.654Z,-5.18
2022-12-03T17:03:34.084Z,-5.18
2022-12-03T17:06:01.906Z,-5.36
2022-12-03T17:08:29.274Z,-5.47
2022-12-03T17:10:56.755Z,-5.50
2022-12-03T17:13:23.979Z,-5.30
2022-12-03T17:15:51.318Z,-5.53
2022-12-03T17:18:18.517Z,-5.62
2022-12-03T17:20:45.711Z,-5.47
2022-12-03T17:23:12.810Z,-5.64
2022-12-03T17:25:39.708Z,-5.59
2022-12-03T17:28:06.746Z,-5.37
2022-12-03T17:30:33.845Z,-5.59
2022-12-03T17:33:01.434Z,-5.89
2022-12-03T17:35:28.711Z,-5.78
2022-12-03T17:37:55.950Z,-5.83
2022-12-03T17:40:23.243Z,-5.74
2022-12-03T17:42:50.228Z,-5.82
2022-12-03T17:45:17.230Z,-5.74
2022-12-03T17:47:44.178Z,-5.82
2022-12-03T17:50:11.244Z,-5.86
2022-12-03T17:52:38.197Z,-5.73
2022-12-03T17:55:19.806Z,-5.64
2022-12-03T17:57:50.796Z,-5.81
2022-12-03T18:00:18.574Z,-6.10
2022-12-03T18:02:45.533Z,-6.05
2022-12-03T18:05:13.551Z,-6.02
2022-12-03T18:07:40.782Z,-6.12
2022-12-03T18:10:08.168Z,-6.00
2022-12-03T18:12:35.194Z,-5.96
2022-12-03T18:15:02.156Z,-5.95
2022-12-03T18:17:31.187Z,-5.74
2022-12-03T18:19:58.374Z,-5.69
2022-12-03T18:22:27.710Z,-5.72
2022-12-03T18:24:55.448Z,-5.63
2022-12-03T18:27:22.981Z,-5.66
2022-12-03T18:29:50.038Z,-5.75
2022-12-03T18:32:28.284Z,-5.75
2022-12-03T18:34:55.628Z,-5.50
2022-12-03T18:37:25.721Z,-5.74
2022-12-03T18:39:53.305Z,-5.77
2022-12-03T18:42:23.620Z,-5.76
2022-12-03T18:44:52.537Z,-5.75
2022-12-03T18:47:22.755Z,-5.75
2022-12-03T18:49:50.262Z,-5.74
2022-12-03T18:52:20.399Z,-5.60
2022-12-03T18:54:48.168Z,-5.55
2022-12-03T18:57:15.496Z,-5.57
2022-12-03T18:59:42.822Z,-5.64
2022-12-03T19:05:08.954Z,-5.51
2022-12-03T19:07:36.075Z,-5.47
2022-12-03T19:10:03.251Z,-5.74
2022-12-03T19:12:31.938Z,-5.43
2022-12-03T19:14:58.897Z,-5.57
2022-12-03T19:17:27.279Z,-5.72
2022-12-03T19:19:55.114Z,-5.47
2022-12-03T19:22:22.493Z,-5.66
2022-12-03T19:24:50.077Z,-5.53
2022-12-03T19:27:17.419Z,-5.55
2022-12-03T19:29:44.599Z,-5.46
2022-12-03T19:32:11.635Z,-5.67
2022-12-03T19:34:38.879Z,-5.88
2022-12-03T19:37:05.851Z,-5.86
2022-12-03T19:39:33.342Z,-5.74
2022-12-03T19:42:00.282Z,-5.79
2022-12-03T19:44:27.328Z,-5.63
2022-12-03T19:46:54.487Z,-5.68
2022-12-03T19:49:21.611Z,-5.77
2022-12-03T19:51:48.861Z,-5.66
2022-12-03T19:54:16.698Z,-5.83
2022-12-03T19:56:44.348Z,-5.85
2022-12-03T19:59:12.544Z,-5.71
2022-12-03T20:01:40.983Z,-5.77
2022-12-03T20:04:08.258Z,-5.76
2022-12-03T20:06:39.885Z,-6.02
2022-12-03T20:09:11.480Z,-5.58
2022-12-03T20:11:40.078Z,-5.51
2022-12-03T20:14:10.485Z,-5.49
2022-12-03T20:16:37.578Z,-5.37
2022-12-03T20:19:07.519Z,-5.30
2022-12-03T20:21:36.697Z,-5.52
2022-12-03T20:24:04.780Z,-5.61
2022-12-03T20:26:32.088Z,-5.46
2022-12-03T20:28:59.769Z,-5.44
2022-12-03T20:31:30.430Z,-5.35
2022-12-03T20:34:00.755Z,-5.57
2022-12-03T20:36:29.653Z,-5.36
2022-12-03T20:38:58.852Z,-5.54
2022-12-03T20:41:26.045Z,-5.52
2022-12-03T20:43:54.140Z,-5.54
2022-12-03T20:46:29.383Z,-5.34
2022-12-03T20:48:57.037Z,-5.45
2022-12-03T20:51:27.576Z,-5.60
2022-12-03T20:53:56.139Z,-5.77
2022-12-03T20:56:26.418Z,-5.83
2022-12-03T20:58:53.855Z,-5.89
2022-12-03T21:01:22.221Z,-5.87
2022-12-03T21:03:50.756Z,-5.84
2022-12-03T21:06:18.513Z,-5.76
2022-12-03T21:08:45.854Z,-5.73
2022-12-03T21:11:16.463Z,-5.74
2022-12-03T21:13:44.062Z,-5.74
2022-12-03T21:16:17.780Z,-5.92
2022-12-03T21:18:44.955Z,-5.90
2022-12-03T21:21:13.846Z,-5.67
2022-12-03T21:23:41.625Z,-5.42
2022-12-03T21:26:10.179Z,-5.57
2022-12-03T21:28:38.826Z,-5.72
2022-12-03T21:31:08.770Z,-5.51
2022-12-03T21:33:36.933Z,-5.69
2022-12-03T21:36:05.007Z,-5.71
2022-12-03T21:38:33.202Z,-5.54
2022-12-03T21:41:01.146Z,-5.57
2022-12-03T21:43:28.510Z,-5.75
2022-12-03T21:45:55.732Z,-5.83
2022-12-03T21:48:22.923Z,-5.83
2022-12-03T21:51:16.800Z,-5.90
2022-12-03T21:53:43.848Z,-6.00
2022-12-03T21:56:13.742Z,-5.82
2022-12-03T21:58:41.053Z,-5.67
2022-12-03T22:01:16.588Z,-5.76
2022-12-03T22:03:44.044Z,-5.69
2022-12-03T22:06:11.766Z,-5.60
2022-12-03T22:08:39.217Z,-5.40
2022-12-03T22:11:09.196Z,-5.29
2022-12-03T22:13:38.424Z,-5.14
2022-12-03T22:16:11.520Z,-5.14
2022-12-03T22:18:39.297Z,-5.62
2022-12-03T22:21:12.727Z,-5.46
2022-12-03T22:23:40.778Z,-5.71
2022-12-03T22:26:10.944Z,-5.75
2022-12-03T22:28:37.936Z,-5.66
2022-12-03T22:31:09.323Z,-5.44
2022-12-03T22:33:37.141Z,-5.70
2022-12-03T22:36:07.008Z,-5.64
2022-12-03T22:38:34.417Z,-5.65
2022-12-03T22:41:07.956Z,-5.58
2022-12-03T22:43:38.954Z,-5.34
2022-12-03T22:46:10.517Z,-5.34
2022-12-03T22:48:37.843Z,-5.36
2022-12-03T22:51:11.957Z,-5.36
2022-12-03T22:53:38.939Z,-5.27
2022-12-03T22:56:06.199Z,-5.19
2022-12-03T22:58:33.393Z,-5.47
2022-12-03T23:01:03.078Z,-5.53
2022-12-03T23:03:30.542Z,-5.61
2022-12-03T23:05:57.551Z,-5.67
2022-12-03T23:08:24.526Z,-5.53
2022-12-03T23:10:52.884Z,-5.54
2022-12-03T23:13:20.971Z,-5.58
2022-12-03T23:15:50.982Z,-5.56
2022-12-03T23:18:19.416Z,-5.39
2022-12-03T23:20:49.588Z,-5.33
2022-12-03T23:23:17.872Z,-5.61
2022-12-03T23:25:45.465Z,-5.72
2022-12-03T23:28:12.655Z,-5.63
2022-12-03T23:30:39.824Z,-5.91
2022-12-03T23:33:06.987Z,-5.73
2022-12-03T23:35:33.961Z,-5.77
2022-12-03T23:38:01.037Z,-5.85
2022-12-03T23:40:27.961Z,-5.91
2022-12-03T23:42:55.172Z,-5.85
2022-12-03T23:45:22.337Z,-5.74
2022-12-03T23:47:52.361Z,-5.85
2022-12-03T23:50:21.972Z,-5.59
2022-12-03T23:52:49.096Z,-5.51
2022-12-03T23:55:16.176Z,-5.54
2022-12-03T23:57:43.240Z,-5.44
